Insider Trading activities of Color Kinetics Inc insiders.

Monthly summaries of insider trading activities (stock purchases, sales, and option exercises) reported by insiders of Color Kinetics Inc since 2005 are illustrated in Table 1 and Table 2. Table 1 shows the monthly insider trading data of Color Kinetics Inc since year 2005. Table 2 shows the detailed insider transactions of Color Kinetics Inc since 2005. The reporting company's ticker symbol is CLRK. The reporting company's CIK number is 1048611.
The total value of stock buying since 2005 is $34,826.
The total value of stock sales since 2005 is $27,961,058.
The total value of stock option exercises since 2005 is $2,562,657.


Table 1. Monthly summaries of insider stock purchases, sales, and option exercises for Color Kinetics Inc (CLRK).
Trading Period Insider Buying Insider Sales Option Exercises
year-month Shares Value Shares Value Shares Value
2007-05 0 $0 87,500 $2,185,210 0 $0
2006-12 0 $0 185,075 $3,323,020 79,075 $240,323
2006-11 0 $0 1,002,000 $17,990,905 530,203 $1,559,861
2006-08 0 $0 0 $0 24,995 $87,482
2006-05 0 $0 0 $0 18,633 $299,991
2006-04 0 $0 0 $0 75,000 $375,000
2005-11 0 $0 40,000 $570,874 0 $0
2005-09 0 $0 51,415 $827,625 0 $0
2005-08 0 $0 177,367 $2,404,050 0 $0
2005-06 0 $0 20,000 $218,569 0 $0
2005-05 3,060 $34,826 35,000 $440,805 0 $0

Table 2. Detailed insider stock purchases, sales, and option exercises of Color Kinetics Inc insiders (CLRK)
  Trade Date   Insider Name Trade Type     Shares       Price ($)   Value ($)
2007-05-16 Lys Ihor (Chief Scientist) Sale 54,500 25.40 1,384,300
2007-05-15 Lys Ihor (Chief Scientist) Sale 33,000 24.27 800,910
2006-12-13 Afeyan Noubar Boghos (Director) Sale 70,075 17.96 1,258,196
2006-12-13 Afeyan Noubar Boghos (Director) Option Ex 70,075 2.98 208,823
2006-12-13 Lys Ihor (Chief Scientist) Sale 115,000 17.96 2,064,824
2006-12-13 Sims William (President and CEO) Option Ex 9,000 3.50 31,500
2006-11-15 Afeyan Noubar Boghos (Director) Sale 192,000 17.96 3,447,359
2006-11-15 Afeyan Noubar Boghos (Director) Option Ex 191,595 2.38 455,996
2006-11-15 Mueller George (Director) Sale 275,000 17.96 4,937,624
2006-11-15 Morgan Fritz (Chief Technology Officer) Sale 15,000 17.96 269,325
2006-11-15 Morgan Fritz (Chief Technology Officer) Option Ex 15,000 4.25 63,750
2006-11-15 Johnson David K (Senior Vice President & CFO) Sale 40,000 17.96 718,199
2006-11-15 Johnson David K (Senior Vice President & CFO) Option Ex 18,608 .24 4,465
2006-11-15 Lys Ihor (Chief Scientist) Sale 225,000 17.96 4,039,874
2006-11-15 Lys Ihor (Chief Scientist) Option Ex 50,000 5.00 250,000
2006-11-15 Sims William (President and CEO) Sale 65,000 17.96 1,167,075
2006-11-15 Sims William (President and CEO) Option Ex 65,000 5.13 333,450
2006-11-15 Armen Garo H (Director) Sale 190,000 17.96 3,411,449
2006-11-15 Armen Garo H (Director) Option Ex 190,000 2.38 452,200
2006-08-09 Morgan Fritz (Chief Technology Officer) Option Ex 22,000 3.50 77,000
2006-08-08 Morgan Fritz (Chief Technology Officer) Option Ex 2,995 3.50 10,482
2006-05-01 Mueller George (Director) Option Ex 18,633 16.10 299,991
2006-04-20 Mueller George (Director) Option Ex 75,000 5.00 375,000
2005-11-07 Mueller George (Chief Executive Officer) Sale 5,000 14.83 74,130
2005-11-02 Johnson David K (CFO, VP, Finance and) Sale 5,400 14.05 75,886
2005-11-01 Mueller George (Chief Executive Officer) Sale 5,000 14.33 71,630
2005-11-01 Johnson David K (CFO, VP, Finance and) Sale 9,600 14.25 136,828
2005-11-01 Lys Ihor (Chief Technology Officer) Sale 15,000 14.16 212,400
2005-09-12 Mueller George (Chief Executive Officer) Sale 5,000 15.12 75,600
2005-09-06 Mueller George (Chief Executive Officer) Sale 5,000 15.63 78,150
2005-09-02 Lys Ihor (Chief Technology Officer) Sale 22,800 16.47 375,607
2005-09-01 Lys Ihor (Chief Technology Officer) Sale 18,615 16.02 298,268
2005-08-29 Mueller George (Chief Executive Officer) Sale 5,000 14.46 72,305
2005-08-26 Cree Inc (10% Owner) Sale 63,782 14.99 956,155
2005-08-23 Johnson David K (CFO, VP, Finance and) Sale 10,000 14.88 148,830
2005-08-23 Lys Ihor (Chief Technology Officer) Sale 33,585 14.80 497,225
2005-08-22 Mueller George (Chief Executive Officer) Sale 5,000 12.00 60,010
2005-08-15 Mueller George (Chief Executive Officer) Sale 5,000 11.66 58,290
2005-08-15 Johnson David K (CFO, VP, Finance and) Sale 5,000 11.52 57,615
2005-08-08 Mueller George (Chief Executive Officer) Sale 5,000 12.21 61,055
2005-08-02 Mueller George (Chief Executive Officer) Sale 5,000 11.29 56,445
2005-08-01 Lys Ihor (Chief Technology Officer) Sale 40,000 10.90 436,120
2005-06-13 Mueller George (Chief Executive Officer) Sale 5,000 10.77 53,869
2005-06-06 Mueller George (Chief Executive Officer) Sale 10,000 10.98 109,800
2005-05-31 Mueller George (Chief Executive Officer) Sale 5,000 11.13 55,630
2005-05-20 Lys Ihor (Chief Technology Officer) Sale 25,000 13.05 326,325
2005-05-16 Johnson David K (CFO, VP, Finance and) Sale 5,000 11.77 58,850
2005-05-11 Abele John E (Director) Buy 344 12.03 4,136
2005-05-10 Abele John E (Director) Buy 2,716 11.30 30,690

Insider trading activities including stock purchases, stock sales, and option exercises of CLRK listed in the above tables cannot be completely guaranteed as to their accuracy. For more insider trading information of Color Kinetics Inc (symbol CLRK, CIK number 1048611) see the Securities and Exchange Commission (SEC) website.